Aérodrome :
LOGIN :

S'inscrire | Disclaimer

   EN    FR    IT 

 










Légende :    VFR   VFR Marginal   IFR   IFR Intensif   IFR Très Intensif
Visi : 
Plafond : 
>= 8 km
>= 3000ft
5 à 8 km
1000 à 3000 ft
1500m à 5 km
500 à 1000 ft
800 à 1500m
200 à 500 ft
< 800m
< 200 ft
Symboles :   Orages  Brouillard  Fortes neiges  Fortes précipitations  Vent > 20 kt
SIGMETs :   Divers  Orages  Givrage  Turbulence  Onde Orograph.  Cendres Volcan.






- Altitude de l'aérodrome : 25 ft
- Code IATA : QCY


EGXC - RAF Coningsby

DERNIER METAR :
  • 192150Z 20013KT 9999 FEW025 OVC030 08/07 Q1009 RMK BLU

METARs EXPIRÉS :
  • 192122Z 20013KT 9999 FEW018 OVC030 08/07 Q1009 NOSIG RMK BLU BLU
  • 192050Z 21013KT 9999 FEW015 OVC030 08/07 Q1010 NOSIG RMK BLU BLU
  • 192025Z 21016KT 9999 SCT015 OVC032 08/07 Q1010 TEMPO FEW015 RMK WHT TEMPO BLU
  • 191950Z 21015KT 9999 FEW018 BKN040 OVC150 08/06 Q1010 NOSIG RMK BLU BLU
  • 191920Z 21017KT 9999 SCT016 BKN040 OVC130 08/06 Q1011 TEMPO BKN012 RMK WHT TEMPO GRN

TAF TAF EGXC
Valide du 19 à 21h jusqu'au 20 à 15h UTC


191933Z 1921/2015 21013KT 9999 FEW018 BKN030
TEMPO 1921/2008 21017G27KT BKN018
PROB40
TEMPO 1921/2003 4000 -RADZ BKN012
BECMG 2008/2011 21023G35KT BKN018
TEMPO 2011/2013 7000 RA BKN012
PROB30
TEMPO 2011/2013 2000 +RA
BECMG 2012/2014 28020G30KT
BECMG 2013/2015 SCT030



MET'MAP, la Météo Aéronautique d'un coup d'oeil ! - Copyright ORBIFLY Décembre 2007 - Disclaimer

ORBIFLY MET'MAP TEAM :

Programmation & Développement : Alexandra Zaïnal
Sur une idée originale de : Baudouin d'Aumeries
Assistance à la programmation : Marc-Olivier Méhu
Soutien technique & logistique : Manuel Goepfert

Contact : metmap@orbifly.com




SOURCES & CREDITS :

   NOAA